Time,TemperatureF,DewpointF,PressureIn,WindDirection,WindDirectionDegrees,WindSpeedMPH,WindSpeedGustMPH,Humidity,HourlyPrecipIn,Conditions,Clouds,dailyrainin,SoftwareType,DateUTC
2013-11-13 00:01:00,24.2,12.7,30.35,NW,317,8.9,9.9,61,0.00,,,0.00,VWS V14.00,2013-11-13 05:01:00,
2013-11-13 00:02:00,24.2,12.7,30.35,WNW,296,6.4,11.0,61,0.00,,,0.00,VWS V14.00,2013-11-13 05:02:00,
2013-11-13 00:03:00,24.0,12.6,30.35,West,263,4.4,6.4,61,0.00,,,0.00,VWS V14.00,2013-11-13 05:03:00,
2013-11-13 00:09:00,24.0,12.2,30.35,West,265,3.9,4.8,60,0.00,,,0.00,VWS V14.00,2013-11-13 05:09:00,
2013-11-13 00:14:00,23.9,12.0,30.35,WNW,290,6.4,7.5,60,0.00,,,0.00,VWS V14.00,2013-11-13 05:14:00,
2013-11-13 00:19:00,23.9,12.0,30.35,West,261,4.4,7.0,60,0.00,,,0.00,VWS V14.00,2013-11-13 05:19:00,
2013-11-13 00:24:00,23.9,11.6,30.35,WNW,283,6.4,7.0,59,0.00,,,0.00,VWS V14.00,2013-11-13 05:24:00,
2013-11-13 00:29:00,23.9,11.6,30.35,NW,318,4.4,7.5,59,0.00,,,0.00,VWS V14.00,2013-11-13 05:29:00,
2013-11-13 00:34:00,23.9,11.6,30.35,NNW,340,9.1,9.9,59,0.00,,,0.00,VWS V14.00,2013-11-13 05:34:00,
2013-11-13 00:39:00,23.9,10.9,30.35,NNW,331,14.0,15.3,57,0.00,,,0.00,VWS V14.00,2013-11-13 05:39:00,
2013-11-13 00:44:00,23.9,10.4,30.35,NNW,327,7.4,13.2,56,0.00,,,0.00,VWS V14.00,2013-11-13 05:44:00,
2013-11-13 00:49:00,23.7,9.9,30.35,NNW,332,4.4,9.7,55,0.00,,,0.00,VWS V14.00,2013-11-13 05:49:00,
2013-11-13 00:54:00,23.7,9.9,30.35,NNE,14,5.4,5.9,55,0.00,,,0.00,VWS V14.00,2013-11-13 05:54:00,
2013-11-13 00:59:00,23.7,9.9,30.35,WNW,295,6.4,9.1,55,0.00,,,0.00,VWS V14.00,2013-11-13 05:59:00,
2013-11-13 01:04:00,23.7,9.9,30.35,NW,312,6.9,10.5,55,0.00,,OVC023,0.00,VWS V14.00,2013-11-13 06:04:00,
2013-11-13 01:09:00,23.7,10.3,30.35,NNW,334,6.9,8.1,56,0.00,,OVC023,0.00,VWS V14.00,2013-11-13 06:09:00,
2013-11-13 01:14:00,23.5,10.1,30.35,West,263,0.0,3.2,56,0.00,,OVC023,0.00,VWS V14.00,2013-11-13 06:14:00,
2013-11-13 01:19:00,23.3,10.3,30.35,WSW,242,6.4,7.0,57,0.00,,OVC023,0.00,VWS V14.00,2013-11-13 06:19:00,
2013-11-13 01:24:00,23.1,9.4,30.35,NW,320,6.9,10.5,55,0.00,,OVC023,0.00,VWS V14.00,2013-11-13 06:24:00,
2013-11-13 01:30:00,22.9,9.2,30.35,NNW,327,6.9,9.7,55,0.00,,OVC023,0.00,VWS V14.00,2013-11-13 06:30:00,
2013-11-13 01:35:00,22.9,8.8,30.35,West,266,6.4,7.5,54,0.00,,OVC023,0.00,VWS V14.00,2013-11-13 06:35:00,
2013-11-13 01:40:00,22.8,8.6,30.35,NE,42,3.9,16.4,54,0.00,,OVC023,0.00,VWS V14.00,2013-11-13 06:40:00,
2013-11-13 01:45:00,22.8,8.6,30.35,North,4,4.4,5.9,54,0.00,,OVC023,0.00,VWS V14.00,2013-11-13 06:45:00,
2013-11-13 01:50:00,22.8,8.6,30.35,NNW,332,7.9,8.6,54,0.00,,OVC023,0.00,VWS V14.00,2013-11-13 06:50:00,
2013-11-13 01:55:00,22.6,8.4,30.35,NNW,335,6.4,9.9,54,0.00,,OVC023,0.00,VWS V14.00,2013-11-13 06:55:00,
2013-11-13 02:00:00,22.4,8.3,30.35,NNW,341,6.4,9.7,54,0.00,,OVC023,0.00,VWS V14.00,2013-11-13 07:00:00,
2013-11-13 02:05:00,22.2,8.1,30.35,NNW,335,9.1,12.6,54,0.00,,OVC024,0.00,VWS V14.00,2013-11-13 07:05:00,
2013-11-13 02:10:00,22.2,7.7,30.35,NNW,329,12.1,15.8,53,0.00,,OVC024,0.00,VWS V14.00,2013-11-13 07:10:00,
2013-11-13 02:15:00,22.0,7.5,30.35,NW,307,9.1,10.5,53,0.00,,OVC024,0.00,VWS V14.00,2013-11-13 07:15:00,
2013-11-13 02:20:00,21.8,7.3,30.35,NNW,344,6.9,9.1,53,0.00,,OVC024,0.00,VWS V14.00,2013-11-13 07:20:00,
2013-11-13 02:25:00,21.8,7.3,30.35,North,350,8.9,16.4,53,0.00,,OVC024,0.00,VWS V14.00,2013-11-13 07:25:00,
2013-11-13 02:30:00,21.8,7.3,30.35,NW,305,6.9,12.1,53,0.00,,SCT017,0.00,VWS V14.00,2013-11-13 07:30:00,
2013-11-13 02:35:00,21.6,7.2,30.35,NNW,329,5.9,7.5,53,0.00,,SCT017,0.00,VWS V14.00,2013-11-13 07:35:00,
2013-11-13 02:40:00,21.6,7.2,30.35,NNW,335,8.9,9.9,53,0.00,,SCT017,0.00,VWS V14.00,2013-11-13 07:40:00,
2013-11-13 02:45:00,21.6,7.2,30.35,NW,322,5.9,12.6,53,0.00,,SCT017,0.00,VWS V14.00,2013-11-13 07:45:00,
2013-11-13 02:51:00,21.6,7.2,30.35,SW,217,11.6,12.6,53,0.00,,SCT017,0.00,VWS V14.00,2013-11-13 07:51:00,
2013-11-13 02:56:00,21.5,7.0,30.35,NNW,346,6.9,12.1,53,0.00,,SCT017,0.00,VWS V14.00,2013-11-13 07:56:00,
2013-11-13 03:01:00,21.5,7.0,30.35,NW,324,6.9,7.5,53,0.00,,CLR,0.00,VWS V14.00,2013-11-13 08:01:00,
2013-11-13 03:06:00,21.5,7.0,30.35,NNW,333,3.9,4.8,53,0.00,,CLR,0.00,VWS V14.00,2013-11-13 08:06:00,
2013-11-13 03:11:00,21.5,7.0,30.35,WNW,286,5.4,7.0,53,0.00,,CLR,0.00,VWS V14.00,2013-11-13 08:11:00,
2013-11-13 03:16:00,21.5,7.0,30.35,NNW,340,4.4,5.4,53,0.00,,CLR,0.00,VWS V14.00,2013-11-13 08:16:00,
2013-11-13 03:21:00,21.3,6.8,30.35,West,271,2.5,2.7,53,0.00,,CLR,0.00,VWS V14.00,2013-11-13 08:21:00,
2013-11-13 03:26:00,21.3,6.8,30.35,NNW,334,3.9,4.3,53,0.00,,CLR,0.00,VWS V14.00,2013-11-13 08:26:00,
2013-11-13 03:31:00,21.3,6.8,30.35,NW,313,4.4,6.4,53,0.00,,CLR,0.00,VWS V14.00,2013-11-13 08:31:00,
2013-11-13 03:36:00,21.3,6.8,30.35,NW,320,6.4,10.5,53,0.00,,CLR,0.00,VWS V14.00,2013-11-13 08:36:00,
2013-11-13 03:41:00,21.3,6.8,30.35,NW,324,5.9,9.9,53,0.00,,CLR,0.00,VWS V14.00,2013-11-13 08:41:00,
2013-11-13 03:46:00,21.5,7.0,30.35,NNW,342,5.9,6.4,53,0.00,,CLR,0.00,VWS V14.00,2013-11-13 08:46:00,
2013-11-13 03:51:00,21.5,7.0,30.35,NNW,334,5.9,6.4,53,0.00,,CLR,0.00,VWS V14.00,2013-11-13 08:51:00,
2013-11-13 03:56:00,21.5,7.0,30.35,WSW,246,3.9,7.5,53,0.00,,CLR,0.00,VWS V14.00,2013-11-13 08:56:00,
2013-11-13 04:02:00,21.5,7.0,30.35,WNW,282,6.9,9.1,53,0.00,,FEW032,0.00,VWS V14.00,2013-11-13 09:02:00,
2013-11-13 04:07:00,21.5,7.0,30.35,NNW,343,0.0,0.0,53,0.00,,FEW032,0.00,VWS V14.00,2013-11-13 09:07:00,
2013-11-13 04:12:00,21.5,7.0,30.35,NNW,340,9.6,10.5,53,0.00,,FEW032,0.00,VWS V14.00,2013-11-13 09:12:00,
2013-11-13 04:17:00,21.5,7.0,30.35,NNW,333,3.0,4.8,53,0.00,,FEW032,0.00,VWS V14.00,2013-11-13 09:17:00,
2013-11-13 04:22:00,21.5,7.0,30.35,NNW,343,5.9,6.4,53,0.00,,FEW032,0.00,VWS V14.00,2013-11-13 09:22:00,
2013-11-13 04:27:00,21.5,7.0,30.35,NNW,339,3.9,4.3,53,0.00,,FEW032,0.00,VWS V14.00,2013-11-13 09:27:00,
2013-11-13 04:32:00,21.3,6.8,30.35,NW,323,6.9,9.1,53,0.00,,FEW032,0.00,VWS V14.00,2013-11-13 09:32:00,
2013-11-13 04:37:00,21.5,7.4,30.35,NNW,338,9.6,10.5,54,0.00,,FEW032,0.00,VWS V14.00,2013-11-13 09:37:00,
2013-11-13 04:42:00,21.5,7.4,30.35,NNW,334,6.4,7.5,54,0.00,,FEW032,0.00,VWS V14.00,2013-11-13 09:42:00,
2013-11-13 04:47:00,21.5,7.4,30.35,NNW,335,8.4,9.1,54,0.00,,FEW032,0.00,VWS V14.00,2013-11-13 09:47:00,
2013-11-13 04:52:00,21.5,7.4,30.35,NW,315,0.0,9.7,54,0.00,,FEW032,0.00,VWS V14.00,2013-11-13 09:52:00,
2013-11-13 04:57:00,21.5,7.4,30.35,NNW,346,5.4,5.9,54,0.00,,FEW032,0.00,VWS V14.00,2013-11-13 09:57:00,
2013-11-13 05:02:00,21.6,7.2,30.35,North,4,3.0,4.8,53,0.00,,OVC030,0.00,VWS V14.00,2013-11-13 10:02:00,
2013-11-13 05:07:00,21.5,7.4,30.35,ENE,74,3.4,4.8,54,0.00,,OVC030,0.00,VWS V14.00,2013-11-13 10:07:00,
2013-11-13 05:12:00,21.6,7.2,30.35,West,265,3.4,4.8,53,0.00,,OVC030,0.00,VWS V14.00,2013-11-13 10:12:00,
2013-11-13 05:17:00,21.6,7.2,30.35,NNE,23,3.4,3.8,53,0.00,,OVC030,0.00,VWS V14.00,2013-11-13 10:17:00,
2013-11-13 05:23:00,21.6,7.2,30.35,West,280,3.0,4.3,53,0.00,,OVC030,0.00,VWS V14.00,2013-11-13 10:23:00,
2013-11-13 05:28:00,21.6,7.2,30.35,North,353,0.0,3.8,53,0.00,,OVC030,0.00,VWS V14.00,2013-11-13 10:28:00,
2013-11-13 05:33:00,21.6,7.6,30.35,North,3,12.1,13.2,54,0.00,,OVC030,0.00,VWS V14.00,2013-11-13 10:33:00,
2013-11-13 05:38:00,21.6,7.6,30.35,NW,304,6.9,7.5,54,0.00,,OVC030,0.00,VWS V14.00,2013-11-13 10:38:00,
2013-11-13 05:43:00,21.8,7.8,30.35,NW,319,8.4,9.1,54,0.00,,OVC030,0.00,VWS V14.00,2013-11-13 10:43:00,
2013-11-13 05:48:00,21.8,7.8,30.35,NW,316,6.4,7.0,54,0.00,,OVC030,0.00,VWS V14.00,2013-11-13 10:48:00,
2013-11-13 05:53:00,21.6,7.6,30.35,NW,320,6.4,10.5,54,0.00,,OVC030,0.00,VWS V14.00,2013-11-13 10:53:00,
2013-11-13 05:58:00,21.6,7.6,30.35,WNW,289,6.9,12.6,54,0.00,,OVC030,0.00,VWS V14.00,2013-11-13 10:58:00,
2013-11-13 06:03:00,21.8,8.2,30.38,NNW,344,4.4,7.5,55,0.00,,OVC027,0.00,VWS V14.00,2013-11-13 11:03:00,
2013-11-13 06:08:00,21.8,8.2,30.38,NW,320,3.9,9.1,55,0.00,,OVC027,0.00,VWS V14.00,2013-11-13 11:08:00,
2013-11-13 06:13:00,21.8,7.8,30.38,NW,322,6.9,9.1,54,0.00,,OVC027,0.00,VWS V14.00,2013-11-13 11:13:00,
2013-11-13 06:18:00,21.8,7.8,30.38,NNW,333,8.9,10.5,54,0.00,,OVC020,0.00,VWS V14.00,2013-11-13 11:18:00,
2013-11-13 06:23:00,21.8,8.2,30.38,NW,306,3.4,6.4,55,0.00,,OVC020,0.00,VWS V14.00,2013-11-13 11:23:00,
2013-11-13 06:28:00,21.8,7.8,30.38,NW,326,5.9,7.0,54,0.00,,OVC020,0.00,VWS V14.00,2013-11-13 11:28:00,
2013-11-13 06:33:00,21.8,7.8,30.38,NNW,327,5.9,6.4,54,0.00,,OVC020,0.00,VWS V14.00,2013-11-13 11:33:00,
2013-11-13 06:38:00,21.8,8.2,30.38,NW,326,8.4,9.1,55,0.00,,OVC020,0.00,VWS V14.00,2013-11-13 11:38:00,
2013-11-13 06:43:00,21.8,7.8,30.38,NNW,342,6.9,7.5,54,0.00,,OVC020,0.00,VWS V14.00,2013-11-13 11:43:00,
2013-11-13 06:49:00,21.6,7.6,30.38,NW,320,9.6,10.5,54,0.00,,OVC020,0.00,VWS V14.00,2013-11-13 11:49:00,
2013-11-13 06:54:00,21.6,7.6,30.38,NNE,16,3.9,13.2,54,0.00,,OVC020,0.00,VWS V14.00,2013-11-13 11:54:00,
2013-11-13 06:59:00,21.6,7.6,30.38,NNW,343,4.9,7.0,54,0.00,,OVC020,0.00,VWS V14.00,2013-11-13 11:59:00,
2013-11-13 07:04:00,21.5,7.4,30.38,NE,41,3.4,9.9,54,0.00,,OVC014,0.00,VWS V14.00,2013-11-13 12:04:00,
2013-11-13 07:09:00,21.5,7.4,30.38,NW,318,3.4,4.8,54,0.00,,OVC014,0.00,VWS V14.00,2013-11-13 12:09:00,
2013-11-13 07:14:00,21.5,7.4,30.38,NNW,334,6.9,9.1,54,0.00,,OVC014,0.00,VWS V14.00,2013-11-13 12:14:00,
2013-11-13 07:19:00,21.5,7.4,30.38,NW,324,3.9,4.3,54,0.00,,OVC014,0.00,VWS V14.00,2013-11-13 12:19:00,
2013-11-13 07:24:00,21.3,7.2,30.38,NNW,331,8.4,9.7,54,0.00,,OVC014,0.00,VWS V14.00,2013-11-13 12:24:00,
2013-11-13 07:29:00,21.3,7.2,30.38,WNW,292,5.4,8.1,54,0.00,,OVC014,0.00,VWS V14.00,2013-11-13 12:29:00,
2013-11-13 07:34:00,21.3,7.2,30.38,NNW,340,5.4,7.0,54,0.00,,OVC014,0.00,VWS V14.00,2013-11-13 12:34:00,
2013-11-13 07:39:00,21.3,7.2,30.38,NW,308,3.0,3.2,54,0.00,,OVC014,0.00,VWS V14.00,2013-11-13 12:39:00,
2013-11-13 07:44:00,21.3,7.2,30.41,NNW,338,4.4,6.4,54,0.00,,OVC014,0.00,VWS V14.00,2013-11-13 12:44:00,
2013-11-13 07:49:00,21.3,7.2,30.41,NNW,328,0.0,3.8,54,0.00,,OVC014,0.00,VWS V14.00,2013-11-13 12:49:00,
2013-11-13 07:54:00,21.3,6.8,30.41,WNW,300,6.4,9.1,53,0.00,,OVC014,0.00,VWS V14.00,2013-11-13 12:54:00,
2013-11-13 08:00:00,21.5,7.4,30.41,NW,316,0.0,0.0,54,0.00,,OVC014,0.00,VWS V14.00,2013-11-13 13:00:00,
2013-11-13 08:05:00,21.5,7.0,30.41,NW,316,3.4,3.8,53,0.00,,OVC017,0.00,VWS V14.00,2013-11-13 13:05:00,
2013-11-13 08:10:00,21.6,7.2,30.41,West,280,3.4,4.8,53,0.00,,OVC017,0.00,VWS V14.00,2013-11-13 13:10:00,
2013-11-13 08:15:00,21.6,7.2,30.41,West,274,3.9,7.0,53,0.00,,OVC017,0.00,VWS V14.00,2013-11-13 13:15:00,
2013-11-13 08:20:00,21.6,7.2,30.41,WNW,285,9.6,10.5,53,0.00,,OVC017,0.00,VWS V14.00,2013-11-13 13:20:00,
2013-11-13 08:25:00,21.8,7.3,30.41,West,278,5.9,6.4,53,0.00,,OVC017,0.00,VWS V14.00,2013-11-13 13:25:00,
2013-11-13 08:30:00,22.0,7.5,30.41,NW,313,4.4,6.4,53,0.00,,OVC017,0.00,VWS V14.00,2013-11-13 13:30:00,
2013-11-13 08:35:00,22.2,7.7,30.41,NW,322,6.9,9.9,53,0.00,,OVC017,0.00,VWS V14.00,2013-11-13 13:35:00,
2013-11-13 08:40:00,22.4,7.8,30.41,NW,321,8.4,12.1,53,0.00,,OVC017,0.00,VWS V14.00,2013-11-13 13:40:00,
2013-11-13 08:45:00,22.4,7.8,30.41,NW,321,5.9,7.0,53,0.00,,OVC017,0.00,VWS V14.00,2013-11-13 13:45:00,
2013-11-13 08:50:00,22.6,8.0,30.41,WNW,292,4.4,7.0,53,0.00,,OVC017,0.00,VWS V14.00,2013-11-13 13:50:00,
2013-11-13 08:55:00,22.8,8.2,30.41,WSW,251,4.4,7.5,53,0.00,,OVC017,0.00,VWS V14.00,2013-11-13 13:55:00,
2013-11-13 09:00:00,22.9,8.4,30.41,NW,308,5.9,7.0,53,0.00,,SCT014,0.00,VWS V14.00,2013-11-13 14:00:00,
2013-11-13 09:06:00,23.1,8.5,30.41,NW,312,3.4,4.3,53,0.00,,SCT014,0.00,VWS V14.00,2013-11-13 14:06:00,
2013-11-13 09:11:00,23.1,8.1,30.41,WNW,294,6.9,7.5,52,0.00,,SCT014,0.00,VWS V14.00,2013-11-13 14:11:00,
2013-11-13 09:16:00,23.3,8.3,30.41,WNW,303,8.9,9.7,52,0.00,,SCT014,0.00,VWS V14.00,2013-11-13 14:16:00,
2013-11-13 09:21:00,23.5,8.5,30.41,NW,311,8.4,9.9,52,0.00,,SCT014,0.00,VWS V14.00,2013-11-13 14:21:00,
2013-11-13 09:26:00,23.7,8.6,30.41,NW,307,4.4,4.8,52,0.00,,SCT014,0.00,VWS V14.00,2013-11-13 14:26:00,
2013-11-13 09:31:00,23.9,8.8,30.41,NW,315,8.9,9.7,52,0.00,,SCT014,0.00,VWS V14.00,2013-11-13 14:31:00,
2013-11-13 09:36:00,24.0,9.0,30.41,WNW,295,8.9,9.7,52,0.00,,SCT014,0.00,VWS V14.00,2013-11-13 14:36:00,
2013-11-13 09:41:00,24.4,9.3,30.41,WNW,303,6.4,9.7,52,0.00,,SCT014,0.00,VWS V14.00,2013-11-13 14:41:00,
2013-11-13 09:46:00,24.6,9.5,30.41,WNW,300,8.4,9.1,52,0.00,,SCT014,0.00,VWS V14.00,2013-11-13 14:46:00,
2013-11-13 09:51:00,24.6,9.1,30.41,West,277,5.4,9.1,51,0.00,,SCT014,0.00,VWS V14.00,2013-11-13 14:51:00,
2013-11-13 09:56:00,24.8,9.2,30.41,NW,319,6.4,9.1,51,0.00,,SCT014,0.00,VWS V14.00,2013-11-13 14:56:00,
2013-11-13 10:01:00,25.1,9.6,30.41,WSW,252,4.4,7.0,51,0.00,,BKN020,0.00,VWS V14.00,2013-11-13 15:01:00,
2013-11-13 10:06:00,25.5,9.9,30.41,NW,314,3.9,7.5,51,0.00,,BKN020,0.00,VWS V14.00,2013-11-13 15:06:00,
2013-11-13 10:12:00,26.0,10.0,30.41,NW,310,4.4,7.5,50,0.00,,BKN020,0.00,VWS V14.00,2013-11-13 15:12:00,
2013-11-13 10:17:00,26.0,9.5,30.41,WNW,290,2.5,3.8,49,0.00,,SCT020,0.00,VWS V14.00,2013-11-13 15:17:00,
2013-11-13 10:22:00,26.4,9.9,30.41,WNW,303,8.4,9.1,49,0.00,,SCT020,0.00,VWS V14.00,2013-11-13 15:22:00,
2013-11-13 10:27:00,26.8,9.7,30.41,West,261,3.4,4.8,48,0.00,,SCT020,0.00,VWS V14.00,2013-11-13 15:27:00,
2013-11-13 10:32:00,27.1,9.6,30.41,WNW,289,6.9,7.5,47,0.00,,SCT020,0.00,VWS V14.00,2013-11-13 15:32:00,
2013-11-13 10:37:00,27.3,9.8,30.41,WSW,257,6.4,9.7,47,0.00,,SCT020,0.00,VWS V14.00,2013-11-13 15:37:00,
2013-11-13 10:42:00,27.7,9.6,30.41,SSW,211,5.4,5.9,46,0.00,,SCT020,0.00,VWS V14.00,2013-11-13 15:42:00,
2013-11-13 10:47:00,27.9,9.8,30.41,NW,305,7.9,9.1,46,0.00,,SCT020,0.00,VWS V14.00,2013-11-13 15:47:00,
2013-11-13 10:52:00,28.2,9.6,30.41,NW,314,6.9,7.5,45,0.00,,SCT020,0.00,VWS V14.00,2013-11-13 15:52:00,
2013-11-13 10:57:00,28.6,10.0,30.41,WNW,289,6.9,9.1,45,0.00,,SCT020,0.00,VWS V14.00,2013-11-13 15:57:00,
2013-11-13 11:02:00,29.0,9.8,30.41,West,277,6.4,9.1,44,0.00,,SCT022,0.00,VWS V14.00,2013-11-13 16:02:00,
2013-11-13 11:08:00,29.7,10.5,30.41,WNW,301,9.6,10.5,44,0.00,,SCT022,0.00,VWS V14.00,2013-11-13 16:08:00,
2013-11-13 11:13:00,29.9,10.1,30.41,NW,321,9.6,10.5,43,0.00,,SCT022,0.00,VWS V14.00,2013-11-13 16:13:00,
2013-11-13 11:18:00,30.1,10.3,30.41,NNW,336,5.9,9.9,43,0.00,,SCT022,0.00,VWS V14.00,2013-11-13 16:18:00,
2013-11-13 11:23:00,29.9,9.6,30.41,West,276,5.9,10.5,42,0.00,,SCT022,0.00,VWS V14.00,2013-11-13 16:23:00,
2013-11-13 11:28:00,30.5,10.1,30.41,NW,312,6.9,10.5,42,0.00,,SCT022,0.00,VWS V14.00,2013-11-13 16:28:00,
2013-11-13 11:33:00,30.8,10.4,30.41,NW,306,7.9,10.5,42,0.00,,SCT022,0.00,VWS V14.00,2013-11-13 16:33:00,
2013-11-13 11:38:00,30.8,10.4,30.41,WSW,249,7.4,9.7,42,0.00,,SCT022,0.00,VWS V14.00,2013-11-13 16:38:00,
2013-11-13 11:43:00,31.0,10.6,30.41,NW,318,8.4,10.5,42,0.00,,SCT022,0.00,VWS V14.00,2013-11-13 16:43:00,
2013-11-13 11:48:00,31.4,10.9,30.38,WSW,242,5.4,9.9,42,0.00,,SCT022,0.00,VWS V14.00,2013-11-13 16:48:00,
2013-11-13 11:53:00,31.7,11.3,30.38,West,273,6.4,9.9,42,0.00,,SCT022,0.00,VWS V14.00,2013-11-13 16:53:00,
2013-11-13 11:58:00,32.1,11.6,30.38,WNW,287,5.9,8.1,42,0.00,,SCT022,0.00,VWS V14.00,2013-11-13 16:58:00,
2013-11-13 12:03:00,32.3,11.2,30.38,WSW,240,6.9,7.5,41,0.00,,CLR,0.00,VWS V14.00,2013-11-13 17:03:00,
2013-11-13 12:08:00,32.7,11.6,30.38,WNW,303,5.4,8.1,41,0.00,,CLR,0.00,VWS V14.00,2013-11-13 17:08:00,
2013-11-13 12:13:00,33.2,12.1,30.38,NW,307,9.6,10.5,41,0.00,,CLR,0.00,VWS V14.00,2013-11-13 17:13:00,
2013-11-13 12:18:00,33.6,12.4,30.38,NW,315,6.4,9.9,41,0.00,,CLR,0.00,VWS V14.00,2013-11-13 17:18:00,
2013-11-13 12:23:00,33.9,12.7,30.38,WNW,302,4.4,9.1,41,0.00,,CLR,0.00,VWS V14.00,2013-11-13 17:23:00,
2013-11-13 12:29:00,34.3,12.5,30.38,NW,313,11.6,12.6,40,0.00,,CLR,0.00,VWS V14.00,2013-11-13 17:29:00,
2013-11-13 12:34:00,34.5,12.7,30.38,West,271,9.1,10.5,40,0.00,,CLR,0.00,VWS V14.00,2013-11-13 17:34:00,
2013-11-13 12:39:00,35.0,13.2,30.38,WNW,301,8.4,9.1,40,0.00,,CLR,0.00,VWS V14.00,2013-11-13 17:39:00,
2013-11-13 12:44:00,35.0,13.2,30.38,WNW,289,4.4,9.7,40,0.00,,CLR,0.00,VWS V14.00,2013-11-13 17:44:00,
2013-11-13 12:49:00,35.2,13.3,30.35,NW,316,6.9,9.9,40,0.00,,CLR,0.00,VWS V14.00,2013-11-13 17:49:00,
2013-11-13 12:54:00,35.6,13.7,30.35,NW,305,6.9,9.7,40,0.00,,CLR,0.00,VWS V14.00,2013-11-13 17:54:00,
2013-11-13 12:59:00,35.4,13.5,30.35,West,267,6.4,7.5,40,0.00,,CLR,0.00,VWS V14.00,2013-11-13 17:59:00,
2013-11-13 13:04:00,35.4,13.5,30.35,SW,227,8.9,9.9,40,0.00,,CLR,0.00,VWS V14.00,2013-11-13 18:04:00,
2013-11-13 13:09:00,35.6,13.7,30.35,NW,305,6.4,9.9,40,0.00,,CLR,0.00,VWS V14.00,2013-11-13 18:09:00,
2013-11-13 13:14:00,35.4,13.5,30.38,WSW,243,3.0,12.1,40,0.00,,CLR,0.00,VWS V14.00,2013-11-13 18:14:00,
2013-11-13 13:19:00,35.2,12.8,30.38,WNW,282,7.4,9.7,39,0.00,,CLR,0.00,VWS V14.00,2013-11-13 18:19:00,
2013-11-13 13:24:00,35.6,13.7,30.38,West,277,6.4,7.5,40,0.00,,CLR,0.00,VWS V14.00,2013-11-13 18:24:00,
2013-11-13 13:29:00,35.4,13.5,30.38,WNW,289,5.4,9.7,40,0.00,,CLR,0.00,VWS V14.00,2013-11-13 18:29:00,
2013-11-13 13:34:00,35.4,13.5,30.38,WNW,303,4.4,7.5,40,0.00,,CLR,0.00,VWS V14.00,2013-11-13 18:34:00,
2013-11-13 13:39:00,34.9,12.4,30.38,West,259,8.4,9.1,39,0.00,,CLR,0.00,VWS V14.00,2013-11-13 18:39:00,
2013-11-13 13:45:00,35.0,12.6,30.38,West,262,6.4,7.5,39,0.00,,CLR,0.00,VWS V14.00,2013-11-13 18:45:00,
2013-11-13 13:50:00,35.0,12.6,30.38,NW,313,6.4,7.5,39,0.00,,CLR,0.00,VWS V14.00,2013-11-13 18:50:00,
2013-11-13 13:55:00,35.0,12.6,30.38,NW,308,6.4,10.5,39,0.00,,CLR,0.00,VWS V14.00,2013-11-13 18:55:00,
2013-11-13 14:00:00,35.0,12.6,30.38,West,266,6.4,12.1,39,0.00,,CLR,0.00,VWS V14.00,2013-11-13 19:00:00,
2013-11-13 14:05:00,35.0,13.2,30.38,WSW,255,3.9,7.0,40,0.00,,CLR,0.00,VWS V14.00,2013-11-13 19:05:00,
2013-11-13 14:10:00,35.0,12.6,30.38,WSW,251,5.4,9.1,39,0.00,,CLR,0.00,VWS V14.00,2013-11-13 19:10:00,
2013-11-13 14:15:00,35.4,13.5,30.35,WNW,287,6.4,7.5,40,0.00,,CLR,0.00,VWS V14.00,2013-11-13 19:15:00,
2013-11-13 14:20:00,35.4,13.5,30.35,WNW,289,3.9,7.5,40,0.00,,CLR,0.00,VWS V14.00,2013-11-13 19:20:00,
2013-11-13 14:25:00,35.4,13.5,30.35,West,266,6.9,9.1,40,0.00,,CLR,0.00,VWS V14.00,2013-11-13 19:25:00,
2013-11-13 14:30:00,35.0,12.6,30.35,WNW,290,11.1,12.1,39,0.00,,CLR,0.00,VWS V14.00,2013-11-13 19:30:00,
2013-11-13 14:35:00,35.0,12.6,30.35,NW,315,6.9,10.5,39,0.00,,CLR,0.00,VWS V14.00,2013-11-13 19:35:00,
2013-11-13 14:40:00,34.7,12.3,30.35,NW,316,10.1,12.1,39,0.00,,CLR,0.00,VWS V14.00,2013-11-13 19:40:00,
2013-11-13 14:45:00,34.9,12.4,30.35,WNW,291,7.9,12.1,39,0.00,,CLR,0.00,VWS V14.00,2013-11-13 19:45:00,
2013-11-13 14:50:00,34.9,12.4,30.35,NW,311,3.9,8.1,39,0.00,,CLR,0.00,VWS V14.00,2013-11-13 19:50:00,
2013-11-13 14:55:00,34.7,12.3,30.35,NNW,329,8.4,10.5,39,0.00,,CLR,0.00,VWS V14.00,2013-11-13 19:55:00,
2013-11-13 15:01:00,34.7,12.3,30.35,WNW,285,8.4,9.1,39,0.00,,CLR,0.00,VWS V14.00,2013-11-13 20:01:00,
2013-11-13 15:06:00,34.7,12.3,30.35,West,277,6.4,9.1,39,0.00,,CLR,0.00,VWS V14.00,2013-11-13 20:06:00,
2013-11-13 15:11:00,34.7,12.3,30.35,West,268,4.4,9.9,39,0.00,,CLR,0.00,VWS V14.00,2013-11-13 20:11:00,
2013-11-13 15:16:00,34.9,12.4,30.35,West,275,6.4,7.5,39,0.00,,CLR,0.00,VWS V14.00,2013-11-13 20:16:00,
2013-11-13 15:21:00,34.9,13.0,30.35,West,264,5.9,8.1,40,0.00,,CLR,0.00,VWS V14.00,2013-11-13 20:21:00,
2013-11-13 15:26:00,34.9,13.0,30.35,SW,227,3.4,7.0,40,0.00,,CLR,0.00,VWS V14.00,2013-11-13 20:26:00,
2013-11-13 15:31:00,34.5,12.1,30.35,West,281,3.0,9.7,39,0.00,,CLR,0.00,VWS V14.00,2013-11-13 20:31:00,
2013-11-13 15:36:00,34.5,12.7,30.35,WNW,282,4.4,9.7,40,0.00,,CLR,0.00,VWS V14.00,2013-11-13 20:36:00,
2013-11-13 15:41:00,34.5,12.7,30.35,West,277,6.9,7.5,40,0.00,,CLR,0.00,VWS V14.00,2013-11-13 20:41:00,
2013-11-13 15:46:00,34.3,12.5,30.35,WNW,299,5.9,7.5,40,0.00,,CLR,0.00,VWS V14.00,2013-11-13 20:46:00,
2013-11-13 15:51:00,34.1,12.4,30.35,West,280,6.4,7.5,40,0.00,,CLR,0.00,VWS V14.00,2013-11-13 20:51:00,
2013-11-13 15:56:00,33.9,12.2,30.35,West,264,6.4,9.7,40,0.00,,CLR,0.00,VWS V14.00,2013-11-13 20:56:00,
2013-11-13 16:01:00,33.8,12.0,30.38,WSW,245,6.9,9.1,40,0.00,,CLR,0.00,VWS V14.00,2013-11-13 21:01:00,
2013-11-13 16:07:00,33.4,11.7,30.38,WNW,295,6.9,12.1,40,0.00,,CLR,0.00,VWS V14.00,2013-11-13 21:07:00,
2013-11-13 16:12:00,33.2,11.5,30.38,WNW,292,8.9,9.7,40,0.00,,CLR,0.00,VWS V14.00,2013-11-13 21:12:00,
2013-11-13 16:17:00,33.0,11.4,30.38,WNW,283,8.4,10.5,40,0.00,,CLR,0.00,VWS V14.00,2013-11-13 21:17:00,
2013-11-13 16:22:00,32.8,11.2,30.38,West,279,4.4,9.7,40,0.00,,CLR,0.00,VWS V14.00,2013-11-13 21:22:00,
2013-11-13 16:27:00,32.7,11.0,30.38,WNW,288,8.4,12.6,40,0.00,,CLR,0.00,VWS V14.00,2013-11-13 21:27:00,
2013-11-13 16:32:00,32.3,11.2,30.38,WNW,293,6.4,9.9,41,0.00,,CLR,0.00,VWS V14.00,2013-11-13 21:32:00,
2013-11-13 16:37:00,32.1,11.1,30.38,West,265,5.9,9.1,41,0.00,,CLR,0.00,VWS V14.00,2013-11-13 21:37:00,
2013-11-13 16:42:00,31.7,10.7,30.38,WNW,288,6.9,9.1,41,0.00,,CLR,0.00,VWS V14.00,2013-11-13 21:42:00,
2013-11-13 16:47:00,31.6,10.6,30.35,West,277,6.4,9.9,41,0.00,,CLR,0.00,VWS V14.00,2013-11-13 21:47:00,
2013-11-13 16:52:00,31.4,10.4,30.35,WNW,292,3.9,4.3,41,0.00,,CLR,0.00,VWS V14.00,2013-11-13 21:52:00,
2013-11-13 16:58:00,31.2,10.2,30.35,WSW,255,3.0,6.4,41,0.00,,CLR,0.00,VWS V14.00,2013-11-13 21:58:00,
2013-11-13 17:03:00,30.6,9.8,30.38,WSW,239,3.0,7.0,41,0.00,,CLR,0.00,VWS V14.00,2013-11-13 22:03:00,
2013-11-13 17:08:00,30.3,9.9,30.38,WNW,300,3.0,7.0,42,0.00,,CLR,0.00,VWS V14.00,2013-11-13 22:08:00,
2013-11-13 17:13:00,29.9,9.6,30.38,WSW,258,3.4,5.9,42,0.00,,CLR,0.00,VWS V14.00,2013-11-13 22:13:00,
2013-11-13 17:18:00,29.5,9.3,30.38,WNW,287,3.4,6.4,42,0.00,,CLR,0.00,VWS V14.00,2013-11-13 22:18:00,
2013-11-13 17:23:00,29.4,9.1,30.38,WNW,301,4.4,8.1,42,0.00,,CLR,0.00,VWS V14.00,2013-11-13 22:23:00,
2013-11-13 17:28:00,29.0,8.8,30.38,WNW,286,3.0,5.9,42,0.00,,CLR,0.00,VWS V14.00,2013-11-13 22:28:00,
2013-11-13 17:33:00,28.8,9.1,30.38,SSW,208,2.5,3.2,43,0.00,,CLR,0.00,VWS V14.00,2013-11-13 22:33:00,
2013-11-13 17:38:00,28.4,8.8,30.38,SSW,203,3.0,3.8,43,0.00,,CLR,0.00,VWS V14.00,2013-11-13 22:38:00,
2013-11-13 17:43:00,28.1,9.0,30.38,South,186,4.4,4.8,44,0.00,,CLR,0.00,VWS V14.00,2013-11-13 22:43:00,
2013-11-13 17:48:00,28.1,9.0,30.38,SW,218,6.4,7.5,44,0.00,,CLR,0.00,VWS V14.00,2013-11-13 22:48:00,
2013-11-13 17:53:00,27.9,8.8,30.38,WSW,248,3.4,3.8,44,0.00,,CLR,0.00,VWS V14.00,2013-11-13 22:53:00,
2013-11-13 17:58:00,27.7,8.6,30.38,SSW,201,4.4,6.4,44,0.00,,CLR,0.00,VWS V14.00,2013-11-13 22:58:00,
2013-11-13 18:03:00,27.5,9.0,30.38,SSW,210,5.9,9.1,45,0.00,,CLR,0.00,VWS V14.00,2013-11-13 23:03:00,
2013-11-13 18:08:00,27.3,8.8,30.38,South,186,4.4,5.9,45,0.00,,CLR,0.00,VWS V14.00,2013-11-13 23:08:00,
2013-11-13 18:13:00,27.1,8.6,30.38,SSW,196,5.9,9.1,45,0.00,,CLR,0.00,VWS V14.00,2013-11-13 23:13:00,
2013-11-13 18:19:00,27.1,9.1,30.38,SW,230,5.9,6.4,46,0.00,,CLR,0.00,VWS V14.00,2013-11-13 23:19:00,
2013-11-13 18:24:00,27.0,9.0,30.38,SSE,158,3.4,7.0,46,0.00,,CLR,0.00,VWS V14.00,2013-11-13 23:24:00,
2013-11-13 18:29:00,26.6,9.1,30.38,SW,225,3.4,7.0,47,0.00,,CLR,0.00,VWS V14.00,2013-11-13 23:29:00,
2013-11-13 18:34:00,26.4,8.9,30.38,SSW,206,5.4,6.4,47,0.00,,CLR,0.00,VWS V14.00,2013-11-13 23:34:00,
2013-11-13 18:39:00,26.4,8.9,30.38,WSW,251,0.0,4.8,47,0.00,,CLR,0.00,VWS V14.00,2013-11-13 23:39:00,
2013-11-13 18:44:00,26.2,8.8,30.38,SSW,202,3.4,4.8,47,0.00,,CLR,0.00,VWS V14.00,2013-11-13 23:44:00,
2013-11-13 18:49:00,26.2,8.8,30.38,WSW,247,0.0,3.8,47,0.00,,CLR,0.00,VWS V14.00,2013-11-13 23:49:00,
2013-11-13 18:54:00,25.9,8.4,30.38,West,265,5.4,5.9,47,0.00,,CLR,0.00,VWS V14.00,2013-11-13 23:54:00,
2013-11-13 18:59:00,25.9,8.4,30.38,WNW,291,3.4,4.3,47,0.00,,CLR,0.00,VWS V14.00,2013-11-13 23:59:00,
2013-11-13 19:04:00,25.7,8.3,30.38,SSW,205,0.0,0.0,47,0.00,,CLR,0.00,VWS V14.00,2013-11-14 00:04:00,
2013-11-13 19:09:00,25.7,8.3,30.38,SSW,200,0.0,0.0,47,0.00,,CLR,0.00,VWS V14.00,2013-11-14 00:09:00,
2013-11-13 19:14:00,25.5,8.1,30.38,South,188,0.0,0.0,47,0.00,,CLR,0.00,VWS V14.00,2013-11-14 00:14:00,
2013-11-13 19:19:00,25.5,8.6,30.38,SSW,209,3.0,3.2,48,0.00,,CLR,0.00,VWS V14.00,2013-11-14 00:19:00,
2013-11-13 19:24:00,25.3,8.8,30.38,WSW,240,3.0,4.8,49,0.00,,CLR,0.00,VWS V14.00,2013-11-14 00:24:00,
2013-11-13 19:29:00,25.3,8.8,30.38,SSW,202,0.0,0.0,49,0.00,,CLR,0.00,VWS V14.00,2013-11-14 00:29:00,
2013-11-13 19:35:00,25.1,9.1,30.38,SSW,199,0.0,0.0,50,0.00,,CLR,0.00,VWS V14.00,2013-11-14 00:35:00,
2013-11-13 19:40:00,25.1,9.1,30.38,South,179,0.0,0.0,50,0.00,,CLR,0.00,VWS V14.00,2013-11-14 00:40:00,
2013-11-13 19:45:00,25.0,8.9,30.38,SSW,200,0.0,0.0,50,0.00,,CLR,0.00,VWS V14.00,2013-11-14 00:45:00,
2013-11-13 19:50:00,24.8,8.8,30.38,SSW,205,0.0,0.0,50,0.00,,CLR,0.00,VWS V14.00,2013-11-14 00:50:00,
2013-11-13 19:55:00,24.6,9.1,30.38,South,179,3.0,3.8,51,0.00,,CLR,0.00,VWS V14.00,2013-11-14 00:55:00,
2013-11-13 20:00:00,24.6,9.1,30.38,South,169,5.4,5.9,51,0.00,,CLR,0.00,VWS V14.00,2013-11-14 01:00:00,
2013-11-13 20:05:00,24.6,9.1,30.38,SSE,164,2.5,3.8,51,0.00,,CLR,0.00,VWS V14.00,2013-11-14 01:05:00,
2013-11-13 20:10:00,24.6,9.1,30.38,South,190,3.0,6.4,51,0.00,,CLR,0.00,VWS V14.00,2013-11-14 01:10:00,
2013-11-13 20:15:00,24.4,8.9,30.35,South,178,3.4,5.9,51,0.00,,CLR,0.00,VWS V14.00,2013-11-14 01:15:00,
2013-11-13 20:20:00,24.4,8.9,30.35,SSE,157,0.0,4.3,51,0.00,,CLR,0.00,VWS V14.00,2013-11-14 01:20:00,
2013-11-13 20:25:00,24.2,8.7,30.35,SW,225,3.0,4.8,51,0.00,,CLR,0.00,VWS V14.00,2013-11-14 01:25:00,
2013-11-13 20:30:00,24.2,9.1,30.38,SSW,195,3.0,3.2,52,0.00,,CLR,0.00,VWS V14.00,2013-11-14 01:30:00,
2013-11-13 20:35:00,24.0,9.0,30.38,SSE,166,2.5,3.8,52,0.00,,CLR,0.00,VWS V14.00,2013-11-14 01:35:00,
2013-11-13 20:40:00,23.9,8.8,30.38,SSE,154,0.0,0.0,52,0.00,,CLR,0.00,VWS V14.00,2013-11-14 01:40:00,
2013-11-13 20:45:00,23.7,8.6,30.38,SE,129,3.9,4.3,52,0.00,,CLR,0.00,VWS V14.00,2013-11-14 01:45:00,
2013-11-13 20:50:00,23.7,9.1,30.38,SE,129,3.4,3.8,53,0.00,,CLR,0.00,VWS V14.00,2013-11-14 01:50:00,
2013-11-13 20:56:00,23.5,8.9,30.38,ESE,119,0.0,0.0,53,0.00,,CLR,0.00,VWS V14.00,2013-11-14 01:56:00,
2013-11-13 21:01:00,23.3,9.1,30.38,NNE,17,3.0,3.8,54,0.00,,CLR,0.00,VWS V14.00,2013-11-14 02:01:00,
2013-11-13 21:06:00,23.3,8.7,30.38,NNW,345,0.0,0.0,53,0.00,,CLR,0.00,VWS V14.00,2013-11-14 02:06:00,
2013-11-13 21:11:00,23.3,8.7,30.38,NNW,345,0.0,0.0,53,0.00,,CLR,0.00,VWS V14.00,2013-11-14 02:11:00,
2013-11-13 21:16:00,23.1,8.5,30.35,NNW,345,0.0,0.0,53,0.00,,CLR,0.00,VWS V14.00,2013-11-14 02:16:00,
2013-11-13 21:21:00,23.1,8.5,30.35,NNW,345,0.0,0.0,53,0.00,,CLR,0.00,VWS V14.00,2013-11-14 02:21:00,
2013-11-13 21:26:00,23.1,8.5,30.35,NNW,345,0.0,0.0,53,0.00,,CLR,0.00,VWS V14.00,2013-11-14 02:26:00,
2013-11-13 21:31:00,22.9,8.4,30.35,NNW,345,0.0,0.0,53,0.00,,CLR,0.00,VWS V14.00,2013-11-14 02:31:00,
2013-11-13 21:36:00,22.9,8.4,30.35,NNW,345,0.0,0.0,53,0.00,,CLR,0.00,VWS V14.00,2013-11-14 02:36:00,
2013-11-13 21:41:00,22.8,8.2,30.35,NNW,345,0.0,0.0,53,0.00,,CLR,0.00,VWS V14.00,2013-11-14 02:41:00,
2013-11-13 21:46:00,22.6,8.0,30.35,NNW,345,0.0,0.0,53,0.00,,CLR,0.00,VWS V14.00,2013-11-14 02:46:00,
2013-11-13 21:51:00,22.4,7.8,30.35,NNW,345,0.0,0.0,53,0.00,,CLR,0.00,VWS V14.00,2013-11-14 02:51:00,
2013-11-13 21:56:00,22.4,8.3,30.35,NNW,345,0.0,0.0,54,0.00,,CLR,0.00,VWS V14.00,2013-11-14 02:56:00,
2013-11-13 22:01:00,22.2,8.1,30.35,NNW,345,0.0,0.0,54,0.00,,CLR,0.00,VWS V14.00,2013-11-14 03:01:00,
2013-11-13 22:06:00,22.0,8.3,30.35,NNW,345,0.0,0.0,55,0.00,,CLR,0.00,VWS V14.00,2013-11-14 03:06:00,
2013-11-13 22:11:00,22.0,8.7,30.35,NNW,345,0.0,0.0,56,0.00,,CLR,0.00,VWS V14.00,2013-11-14 03:11:00,
2013-11-13 22:17:00,22.0,8.7,30.35,NNW,345,0.0,0.0,56,0.00,,CLR,0.00,VWS V14.00,2013-11-14 03:17:00,
2013-11-13 22:22:00,22.0,8.7,30.35,NNW,345,0.0,0.0,56,0.00,,CLR,0.00,VWS V14.00,2013-11-14 03:22:00,
2013-11-13 22:27:00,22.0,8.7,30.35,NNW,345,0.0,0.0,56,0.00,,CLR,0.00,VWS V14.00,2013-11-14 03:27:00,
2013-11-13 22:32:00,22.0,8.3,30.35,NNW,345,0.0,0.0,55,0.00,,CLR,0.00,VWS V14.00,2013-11-14 03:32:00,
2013-11-13 22:37:00,21.8,8.6,30.35,NNW,345,0.0,0.0,56,0.00,,CLR,0.00,VWS V14.00,2013-11-14 03:37:00,
2013-11-13 22:42:00,21.6,8.4,30.35,NNW,345,0.0,0.0,56,0.00,,CLR,0.00,VWS V14.00,2013-11-14 03:42:00,
2013-11-13 22:47:00,21.6,8.8,30.35,NNW,345,0.0,0.0,57,0.00,,CLR,0.00,VWS V14.00,2013-11-14 03:47:00,
2013-11-13 22:52:00,21.6,8.4,30.35,NNW,345,0.0,0.0,56,0.00,,CLR,0.00,VWS V14.00,2013-11-14 03:52:00,
2013-11-13 22:57:00,21.5,8.6,30.35,NNW,345,0.0,0.0,57,0.00,,CLR,0.00,VWS V14.00,2013-11-14 03:57:00,
2013-11-13 23:02:00,21.5,8.6,30.35,NNW,345,0.0,0.0,57,0.00,,CLR,0.00,VWS V14.00,2013-11-14 04:02:00,
2013-11-13 23:07:00,21.5,8.6,30.35,NNW,345,0.0,0.0,57,0.00,,CLR,0.00,VWS V14.00,2013-11-14 04:07:00,
2013-11-13 23:12:00,21.3,8.4,30.35,NNW,345,0.0,0.0,57,0.00,,CLR,0.00,VWS V14.00,2013-11-14 04:12:00,
2013-11-13 23:17:00,21.3,8.4,30.35,NNW,345,0.0,0.0,57,0.00,,CLR,0.00,VWS V14.00,2013-11-14 04:17:00,
2013-11-13 23:22:00,20.9,8.5,30.35,NNW,345,0.0,0.0,58,0.00,,CLR,0.00,VWS V14.00,2013-11-14 04:22:00,
2013-11-13 23:27:00,20.9,8.5,30.35,NNW,345,0.0,0.0,58,0.00,,CLR,0.00,VWS V14.00,2013-11-14 04:27:00,
2013-11-13 23:32:00,20.9,8.5,30.35,NNW,345,0.0,0.0,58,0.00,,CLR,0.00,VWS V14.00,2013-11-14 04:32:00,
2013-11-13 23:38:00,20.9,8.5,30.35,NNW,345,0.0,0.0,58,0.00,,CLR,0.00,VWS V14.00,2013-11-14 04:38:00,
2013-11-13 23:43:00,20.9,8.1,30.35,NNW,345,0.0,0.0,57,0.00,,CLR,0.00,VWS V14.00,2013-11-14 04:43:00,
2013-11-13 23:48:00,20.9,8.1,30.35,NNW,345,0.0,0.0,57,0.00,,CLR,0.00,VWS V14.00,2013-11-14 04:48:00,
2013-11-13 23:53:00,20.7,7.9,30.35,NNW,345,0.0,0.0,57,0.00,,CLR,0.00,VWS V14.00,2013-11-14 04:53:00,
2013-11-13 23:58:00,20.7,7.9,30.35,NNW,345,0.0,0.0,57,0.00,,CLR,0.00,VWS V14.00,2013-11-14 04:58:00,